Whitmore Lake, Michigan
Current Conditions -  °F | °C
As of 11:53 AM on Monday 22 Dec 2014 (Local Time) from KARB Reporting Station
Clear Clear  
Wind Chill: 29°   Ceiling: Unl
Heat Index: 35°   Visibility: 8mi
Dew Point: 28°   Wind: 8mph
Humidity: 76%   Direction: 90°E
Pressure: 30.01"   Gusts: NA
Location:  42.43°N, 83.75°W
Report Text: KARB 221653Z 09007KT 8SM CLR 02/M02 A3001 RMK AO2 SLP171 T00171022
Loading
Personal Weather Stations






























Interactive Weather Map New forecast layout! Learn more

10-Day Weather Forecast

Advertisements
Track Severe Weather on mobile